createdAt,value
2019-05-02T00:00:10.911Z,9.09
2019-05-02T00:01:11.110Z,9.10
2019-05-02T00:02:10.898Z,9.06
2019-05-02T00:03:10.877Z,8.99
2019-05-02T00:04:12.390Z,8.86
2019-05-02T00:05:11.855Z,8.91
2019-05-02T00:06:10.853Z,8.83
2019-05-02T00:07:14.553Z,8.90
2019-05-02T00:08:11.817Z,8.84
2019-05-02T00:09:11.193Z,8.91
2019-05-02T00:10:10.795Z,8.81
2019-05-02T00:11:10.788Z,8.87
2019-05-02T00:12:10.773Z,8.79
2019-05-02T00:13:10.846Z,8.71
2019-05-02T00:14:10.776Z,8.69
2019-05-02T00:15:10.738Z,8.73
2019-05-02T00:16:14.195Z,8.71
2019-05-02T00:17:10.730Z,8.54
2019-05-02T00:18:10.704Z,8.54
2019-05-02T00:19:14.001Z,8.44
2019-05-02T00:20:10.679Z,8.50
2019-05-02T00:21:10.666Z,8.55
2019-05-02T00:22:12.218Z,8.53
2019-05-02T00:23:11.643Z,8.60
2019-05-02T00:24:10.633Z,8.68
2019-05-02T00:25:11.165Z,8.58
2019-05-02T00:26:10.609Z,8.63
2019-05-02T00:27:10.599Z,8.54
2019-05-02T00:28:12.379Z,8.57
2019-05-02T00:29:10.573Z,8.44
2019-05-02T00:30:10.570Z,8.53
2019-05-02T00:31:11.631Z,8.47
2019-05-02T00:32:10.537Z,8.45
2019-05-02T00:33:10.620Z,8.44
2019-05-02T00:34:10.516Z,8.58
2019-05-02T00:35:10.502Z,8.55
2019-05-02T00:36:10.494Z,8.53
2019-05-02T00:37:10.545Z,8.55
2019-05-02T00:38:10.469Z,8.40
2019-05-02T00:39:13.882Z,8.54
2019-05-02T00:40:10.454Z,8.55
2019-05-02T00:41:10.437Z,8.60
2019-05-02T00:42:12.763Z,8.55
2019-05-02T00:43:10.485Z,8.58
2019-05-02T00:44:11.035Z,8.55
2019-05-02T00:45:10.390Z,8.60
2019-05-02T00:46:10.379Z,8.63
2019-05-02T00:47:10.904Z,8.72
2019-05-02T00:48:10.355Z,8.83
2019-05-02T00:49:10.555Z,8.79
2019-05-02T00:50:11.392Z,8.87
2019-05-02T00:51:10.328Z,8.88
2019-05-02T00:52:10.309Z,8.84
2019-05-02T00:53:12.022Z,8.91
2019-05-02T00:54:10.286Z,8.94
2019-05-02T00:55:10.486Z,8.91
2019-05-02T00:56:10.427Z,8.97
2019-05-02T00:57:10.252Z,8.90
2019-05-02T00:58:10.241Z,8.84
2019-05-02T00:59:10.228Z,8.93
2019-05-02T01:00:13.336Z,8.81
2019-05-02T01:01:11.271Z,8.87
2019-05-02T01:02:10.194Z,8.79
2019-05-02T01:03:11.241Z,8.79
2019-05-02T01:04:11.183Z,8.75
2019-05-02T01:05:10.165Z,8.65
2019-05-02T01:06:14.428Z,8.73
2019-05-02T01:07:11.341Z,8.65
2019-05-02T01:08:10.125Z,8.63
2019-05-02T01:09:11.156Z,8.71
2019-05-02T01:10:10.104Z,8.66
2019-05-02T01:11:10.091Z,8.71
2019-05-02T01:12:10.092Z,8.68
2019-05-02T01:13:10.129Z,8.72
2019-05-02T01:14:10.058Z,8.75
2019-05-02T01:15:10.056Z,8.73
2019-05-02T01:16:10.039Z,8.73
2019-05-02T01:17:10.024Z,8.69
2019-05-02T01:18:10.012Z,8.73
2019-05-02T01:19:12.199Z,8.66
2019-05-02T01:20:10.992Z,8.66
2019-05-02T01:21:09.980Z,8.81
2019-05-02T01:22:10.548Z,8.90
2019-05-02T01:23:10.971Z,8.79
2019-05-02T01:24:09.945Z,8.83
2019-05-02T01:25:15.341Z,8.87
2019-05-02T01:26:10.926Z,8.83
2019-05-02T01:27:09.912Z,8.73
2019-05-02T01:28:12.615Z,8.76
2019-05-02T01:29:10.897Z,8.81
2019-05-02T01:30:09.881Z,8.73
2019-05-02T01:31:13.112Z,8.81
2019-05-02T01:32:10.855Z,8.83
2019-05-02T01:33:09.846Z,8.73
2019-05-02T01:34:13.100Z,8.72
2019-05-02T01:35:10.822Z,8.71
2019-05-02T01:36:09.811Z,8.69
2019-05-02T01:37:11.941Z,8.71
2019-05-02T01:38:10.789Z,8.62
2019-05-02T01:39:09.785Z,8.73
2019-05-02T01:40:13.043Z,8.60
2019-05-02T01:41:10.762Z,8.58
2019-05-02T01:42:09.743Z,8.55
2019-05-02T01:43:09.804Z,8.47
2019-05-02T01:44:09.725Z,8.45
2019-05-02T01:45:11.136Z,8.48
2019-05-02T01:46:09.699Z,8.48
2019-05-02T01:47:09.688Z,8.44
2019-05-02T01:48:10.922Z,8.40
2019-05-02T01:49:09.725Z,8.37
2019-05-02T01:50:09.651Z,8.37
2019-05-02T01:51:11.977Z,8.33
2019-05-02T01:52:09.629Z,8.33
2019-05-02T01:53:09.618Z,8.45
2019-05-02T01:54:11.259Z,8.35
2019-05-02T01:55:09.668Z,8.44
2019-05-02T01:56:09.581Z,8.35
2019-05-02T01:57:10.046Z,8.40
2019-05-02T01:58:09.573Z,8.39
2019-05-02T01:59:09.564Z,8.42
2019-05-02T02:00:11.433Z,8.40
2019-05-02T02:01:09.606Z,8.44
2019-05-02T02:02:09.529Z,8.40
2019-05-02T02:03:10.396Z,8.40
2019-05-02T02:04:09.504Z,8.39
2019-05-02T02:05:09.493Z,8.39
2019-05-02T02:06:10.159Z,8.40
2019-05-02T02:07:09.534Z,8.42
2019-05-02T02:08:09.466Z,8.36
2019-05-02T02:09:09.896Z,8.40
2019-05-02T02:10:09.436Z,8.40
2019-05-02T02:11:09.427Z,8.33
2019-05-02T02:12:11.280Z,8.35
2019-05-02T02:13:09.468Z,8.21
2019-05-02T02:14:13.058Z,8.28
2019-05-02T02:15:10.377Z,8.20
2019-05-02T02:16:09.386Z,8.25
2019-05-02T02:17:10.176Z,8.21
2019-05-02T02:18:10.408Z,8.20
2019-05-02T02:19:09.341Z,8.18
2019-05-02T02:20:09.758Z,8.14
2019-05-02T02:21:09.313Z,8.07
2019-05-02T02:22:09.302Z,8.12
2019-05-02T02:23:10.164Z,7.99
2019-05-02T02:24:09.345Z,8.08
2019-05-02T02:25:09.270Z,7.99
2019-05-02T02:26:12.024Z,7.99
2019-05-02T02:27:09.250Z,7.96
2019-05-02T02:28:09.233Z,7.85
2019-05-02T02:29:09.367Z,7.97
2019-05-02T02:30:09.282Z,7.85
2019-05-02T02:31:09.220Z,7.92
2019-05-02T02:32:09.189Z,7.79
2019-05-02T02:33:09.820Z,7.79
2019-05-02T02:34:09.169Z,7.74
2019-05-02T02:35:10.097Z,7.79
2019-05-02T02:36:09.213Z,7.69
2019-05-02T02:37:13.139Z,7.79
2019-05-02T02:38:10.122Z,7.77
2019-05-02T02:39:14.555Z,7.84
2019-05-02T02:40:10.099Z,7.84
2019-05-02T02:41:13.307Z,7.78
2019-05-02T02:42:10.293Z,7.77
2019-05-02T02:43:30.007Z,7.78
2019-05-02T02:44:10.061Z,7.74
2019-05-02T02:45:13.020Z,7.87
2019-05-02T02:46:10.029Z,7.85
2019-05-02T02:47:11.819Z,7.82
2019-05-02T02:48:10.217Z,7.77
2019-05-02T02:49:14.007Z,7.72
2019-05-02T02:50:10.001Z,7.75
2019-05-02T02:51:08.975Z,7.79
2019-05-02T02:52:08.964Z,7.77
2019-05-02T02:53:08.951Z,7.77
2019-05-02T02:54:09.151Z,7.79
2019-05-02T02:55:08.953Z,7.75
2019-05-02T02:56:08.921Z,7.78
2019-05-02T02:57:20.538Z,7.72
2019-05-02T02:58:09.895Z,7.69
2019-05-02T02:59:08.885Z,7.75
2019-05-02T03:00:11.048Z,7.77
2019-05-02T03:01:08.865Z,7.74
2019-05-02T03:02:11.733Z,7.71
2019-05-02T03:03:08.875Z,7.75
2019-05-02T03:04:11.784Z,7.62
2019-05-02T03:05:08.823Z,7.63
2019-05-02T03:06:08.879Z,7.63
2019-05-02T03:07:08.792Z,7.74
2019-05-02T03:08:08.781Z,7.74
2019-05-02T03:09:08.787Z,7.79
2019-05-02T03:10:08.809Z,7.82
2019-05-02T03:11:08.746Z,7.78
2019-05-02T03:12:08.948Z,7.75
2019-05-02T03:13:14.797Z,7.71
2019-05-02T03:14:09.950Z,7.72
2019-05-02T03:15:08.705Z,7.69
2019-05-02T03:16:09.399Z,7.72
2019-05-02T03:17:08.679Z,7.75
2019-05-02T03:18:08.877Z,7.66
2019-05-02T03:19:14.459Z,7.72
2019-05-02T03:20:09.655Z,7.75
2019-05-02T03:21:13.496Z,7.75
2019-05-02T03:22:09.622Z,7.71
2019-05-02T03:23:08.844Z,7.72
2019-05-02T03:24:09.678Z,7.72
2019-05-02T03:25:08.589Z,7.72
2019-05-02T03:26:14.959Z,7.75
2019-05-02T03:27:09.567Z,7.66
2019-05-02T03:28:17.850Z,7.69
2019-05-02T03:29:09.542Z,7.62
2019-05-02T03:30:08.601Z,7.58
2019-05-02T03:31:23.919Z,7.55
2019-05-02T03:32:16.063Z,7.56
2019-05-02T03:33:11.845Z,7.56
2019-05-02T03:34:08.485Z,7.63
2019-05-02T03:35:08.479Z,7.58
2019-05-02T03:36:26.284Z,7.50
2019-05-02T03:37:10.852Z,7.50
2019-05-02T03:38:08.443Z,7.41
2019-05-02T03:39:15.059Z,7.38
2019-05-02T03:40:09.430Z,7.35
2019-05-02T03:41:13.258Z,7.31
2019-05-02T03:42:09.614Z,7.27
2019-05-02T03:43:08.386Z,7.23
2019-05-02T03:44:11.601Z,7.22
2019-05-02T03:45:09.368Z,7.19
2019-05-02T03:46:13.664Z,7.27
2019-05-02T03:47:09.333Z,7.22
2019-05-02T03:48:08.386Z,7.27
2019-05-02T03:49:09.661Z,7.13
2019-05-02T03:50:09.553Z,7.19
2019-05-02T03:51:19.821Z,7.08
2019-05-02T03:52:09.277Z,7.12
2019-05-02T03:53:08.269Z,7.09
2019-05-02T03:54:10.379Z,6.99
2019-05-02T03:55:08.245Z,7.05
2019-05-02T03:56:11.366Z,6.95
2019-05-02T03:57:09.218Z,6.97
2019-05-02T03:58:14.008Z,6.90
2019-05-02T03:59:09.262Z,6.97
2019-05-02T04:00:13.932Z,7.08
2019-05-02T04:01:09.173Z,7.04
2019-05-02T04:02:14.062Z,7.09
2019-05-02T04:03:09.148Z,7.13
2019-05-02T04:04:08.138Z,7.13
2019-05-02T04:05:08.203Z,7.16
2019-05-02T04:06:14.103Z,7.13
2019-05-02T04:07:09.123Z,7.02
2019-05-02T04:08:19.874Z,7.15
2019-05-02T04:09:09.082Z,7.09
2019-05-02T04:10:13.423Z,7.08
2019-05-02T04:11:09.120Z,7.08
2019-05-02T04:12:17.822Z,7.05
2019-05-02T04:13:09.035Z,7.13
2019-05-02T04:14:15.153Z,7.02
2019-05-02T04:15:09.767Z,7.08
2019-05-02T04:16:14.655Z,7.09
2019-05-02T04:17:09.223Z,7.07
2019-05-02T04:18:08.425Z,7.05
2019-05-02T04:19:08.968Z,7.02
2019-05-02T04:20:10.181Z,7.05
2019-05-02T04:21:07.942Z,7.01
2019-05-02T04:22:11.339Z,7.08
2019-05-02T04:23:07.984Z,7.16
2019-05-02T04:24:13.716Z,7.15
2019-05-02T04:25:08.899Z,7.27
2019-05-02T04:26:12.684Z,7.24
2019-05-02T04:27:08.877Z,7.31
2019-05-02T04:28:12.071Z,7.26
2019-05-02T04:29:08.915Z,7.41
2019-05-02T04:30:11.251Z,7.52
2019-05-02T04:31:08.828Z,7.50
2019-05-02T04:32:11.464Z,7.49
2019-05-02T04:33:08.803Z,7.50
2019-05-02T04:34:15.796Z,7.77
2019-05-02T04:35:08.847Z,7.77
2019-05-02T04:36:15.188Z,7.99
2019-05-02T04:37:08.762Z,8.07
2019-05-02T04:38:19.011Z,8.08
2019-05-02T04:39:15.161Z,8.26
2019-05-02T04:40:12.192Z,8.30
2019-05-02T04:41:09.314Z,8.33
2019-05-02T04:42:12.971Z,8.40
2019-05-02T04:43:11.432Z,8.50
2019-05-02T04:44:09.055Z,8.48
2019-05-02T04:45:24.133Z,8.68
2019-05-02T04:46:18.079Z,8.87
2019-05-02T04:47:16.560Z,8.96
2019-05-02T04:48:08.695Z,8.99
2019-05-02T04:49:09.220Z,9.10
2019-05-02T04:50:17.637Z,9.04
2019-05-02T04:51:14.211Z,9.05
2019-05-02T04:52:12.443Z,9.04
2019-05-02T04:53:08.764Z,9.05
2019-05-02T04:54:09.203Z,9.09
2019-05-02T04:55:19.716Z,9.05
2019-05-02T04:56:10.678Z,9.10
2019-05-02T04:57:08.413Z,9.10
2019-05-02T04:58:08.340Z,9.16
2019-05-02T04:59:13.818Z,9.30
2019-05-02T05:00:11.801Z,9.30
2019-05-02T05:01:09.888Z,9.34
2019-05-02T05:02:09.094Z,9.40
2019-05-02T05:03:15.656Z,9.46
2019-05-02T05:04:08.517Z,9.46
2019-05-02T05:05:08.221Z,9.42
2019-05-02T05:06:12.262Z,9.39
2019-05-02T05:07:09.279Z,9.46
2019-05-02T05:08:07.882Z,9.45
2019-05-02T05:09:12.681Z,9.45
2019-05-02T05:10:08.590Z,9.49
2019-05-02T05:11:07.825Z,9.48
2019-05-02T05:12:07.362Z,9.60
2019-05-02T05:13:07.789Z,9.58
2019-05-02T05:14:09.932Z,9.58
2019-05-02T05:15:07.836Z,9.68
2019-05-02T05:16:11.157Z,9.68
2019-05-02T05:17:08.306Z,9.75
2019-05-02T05:18:10.503Z,9.68
2019-05-02T05:19:08.275Z,9.73
2019-05-02T05:20:13.690Z,9.82
2019-05-02T05:21:10.660Z,9.78
2019-05-02T05:22:11.690Z,9.81
2019-05-02T05:23:08.238Z,9.76
2019-05-02T05:24:07.720Z,9.81
2019-05-02T05:25:07.579Z,9.73
2019-05-02T05:26:07.444Z,9.78
2019-05-02T05:27:08.244Z,9.86
2019-05-02T05:28:09.103Z,9.99
2019-05-02T05:29:08.252Z,9.99
2019-05-02T05:30:11.232Z,9.96
2019-05-02T05:31:08.141Z,10.00
2019-05-02T05:32:09.891Z,10.03
2019-05-02T05:33:10.057Z,10.09
2019-05-02T05:34:07.790Z,10.15
2019-05-02T05:35:09.106Z,10.17
2019-05-02T05:36:08.408Z,10.18
2019-05-02T05:37:11.647Z,10.21
2019-05-02T05:38:08.269Z,10.25
2019-05-02T05:39:08.631Z,10.21
2019-05-02T05:40:08.399Z,10.26
2019-05-02T05:41:09.007Z,10.26
2019-05-02T05:42:10.575Z,10.32
2019-05-02T05:43:13.715Z,10.25
2019-05-02T05:44:08.059Z,10.34
2019-05-02T05:45:09.846Z,10.37
2019-05-02T05:46:10.668Z,10.39
2019-05-02T05:47:07.397Z,10.37
2019-05-02T05:48:08.280Z,10.42
2019-05-02T05:49:10.498Z,10.40
2019-05-02T05:50:08.369Z,10.44
2019-05-02T05:51:07.368Z,10.39
2019-05-02T05:52:08.039Z,10.33
2019-05-02T05:53:07.903Z,10.34
2019-05-02T05:54:07.739Z,10.24
2019-05-02T05:55:07.840Z,10.17
2019-05-02T05:56:07.995Z,10.22
2019-05-02T05:57:07.597Z,10.37
2019-05-02T05:58:13.161Z,10.81
2019-05-02T05:59:07.961Z,10.91
2019-05-02T06:00:11.845Z,10.98
2019-05-02T06:01:10.296Z,11.11
2019-05-02T06:02:13.242Z,11.14
2019-05-02T06:03:14.075Z,11.43
2019-05-02T06:04:08.114Z,11.36
2019-05-02T06:05:07.919Z,11.41
2019-05-02T06:06:08.254Z,11.64
2019-05-02T06:07:07.338Z,11.74
2019-05-02T06:08:08.153Z,11.75
2019-05-02T06:09:06.704Z,11.85
2019-05-02T06:10:07.839Z,11.97
2019-05-02T06:11:06.685Z,12.01
2019-05-02T06:12:06.686Z,12.15
2019-05-02T06:13:11.009Z,12.02
2019-05-02T06:14:07.645Z,12.30
2019-05-02T06:15:06.636Z,12.23
2019-05-02T06:16:10.501Z,12.29
2019-05-02T06:17:07.614Z,12.33
2019-05-02T06:18:06.600Z,12.34
2019-05-02T06:19:06.665Z,12.33
2019-05-02T06:20:06.578Z,12.39
2019-05-02T06:21:08.702Z,12.39
2019-05-02T06:22:06.562Z,12.67
2019-05-02T06:23:06.553Z,12.87
2019-05-02T06:24:06.550Z,13.07
2019-05-02T06:25:09.525Z,12.85
2019-05-02T06:26:12.707Z,12.85
2019-05-02T06:27:07.500Z,12.62
2019-05-02T06:28:06.848Z,12.51
2019-05-02T06:29:06.478Z,12.70
2019-05-02T06:30:06.466Z,12.34
2019-05-02T06:31:07.238Z,12.78
2019-05-02T06:32:06.440Z,12.34
2019-05-02T06:33:06.430Z,12.13
2019-05-02T06:34:07.119Z,11.87
2019-05-02T06:35:06.406Z,12.29
2019-05-02T06:36:06.394Z,12.66
2019-05-02T06:37:08.267Z,12.82
2019-05-02T06:38:07.370Z,13.04
2019-05-02T06:39:06.382Z,12.81
2019-05-02T06:40:08.155Z,12.62
2019-05-02T06:41:06.336Z,12.85
2019-05-02T06:42:06.324Z,13.00
2019-05-02T06:43:09.649Z,13.25
2019-05-02T06:44:06.302Z,13.52
2019-05-02T06:45:06.290Z,13.94
2019-05-02T06:46:15.885Z,13.52
2019-05-02T06:47:07.265Z,13.44
2019-05-02T06:48:06.258Z,13.87
2019-05-02T06:49:06.313Z,13.63
2019-05-02T06:50:06.235Z,13.51
2019-05-02T06:51:10.951Z,12.87
2019-05-02T06:52:07.212Z,12.87
2019-05-02T06:53:09.620Z,13.29
2019-05-02T06:54:06.189Z,13.56
2019-05-02T06:55:06.387Z,13.61
2019-05-02T06:56:08.022Z,13.74
2019-05-02T06:57:07.155Z,13.94
2019-05-02T06:58:08.130Z,13.63
2019-05-02T06:59:06.130Z,13.73
2019-05-02T07:00:06.725Z,13.62
2019-05-02T07:01:06.192Z,13.25
2019-05-02T07:02:06.096Z,13.11
2019-05-02T07:03:10.158Z,12.89
2019-05-02T07:04:07.077Z,12.70
2019-05-02T07:05:06.063Z,13.03
2019-05-02T07:06:07.638Z,13.33
2019-05-02T07:07:06.326Z,13.98
2019-05-02T07:08:11.201Z,13.98
2019-05-02T07:09:07.141Z,14.56
2019-05-02T07:10:07.505Z,14.65
2019-05-02T07:11:05.994Z,14.71
2019-05-02T07:12:09.875Z,14.88
2019-05-02T07:13:10.724Z,14.88
2019-05-02T07:14:13.195Z,14.38
2019-05-02T07:15:08.354Z,14.07
2019-05-02T07:16:10.564Z,13.88
2019-05-02T07:17:06.926Z,13.81
2019-05-02T07:18:10.686Z,14.34
2019-05-02T07:19:06.965Z,14.75
2019-05-02T07:20:05.941Z,14.57
2019-05-02T07:21:05.880Z,13.95
2019-05-02T07:22:05.870Z,13.61
2019-05-02T07:23:10.540Z,13.71
2019-05-02T07:24:06.845Z,14.02
2019-05-02T07:25:06.974Z,14.32
2019-05-02T07:26:05.826Z,14.16
2019-05-02T07:27:05.810Z,14.47
2019-05-02T07:28:09.520Z,14.35
2019-05-02T07:29:05.787Z,14.38
2019-05-02T07:30:05.785Z,14.95
2019-05-02T07:31:06.512Z,15.75
2019-05-02T07:32:06.752Z,15.81
2019-05-02T07:33:05.742Z,15.36
2019-05-02T07:34:08.132Z,14.31
2019-05-02T07:35:06.724Z,13.95
2019-05-02T07:36:05.720Z,14.71
2019-05-02T07:37:08.346Z,15.52
2019-05-02T07:38:06.687Z,15.68
2019-05-02T07:39:06.414Z,15.61
2019-05-02T07:40:05.666Z,16.20
2019-05-02T07:41:05.649Z,16.26
2019-05-02T07:42:07.697Z,15.96
2019-05-02T07:43:05.695Z,14.81
2019-05-02T07:44:05.619Z,14.65
2019-05-02T07:45:09.512Z,15.06
2019-05-02T07:46:06.591Z,15.45
2019-05-02T07:47:05.595Z,15.38
2019-05-02T07:48:05.574Z,15.11
2019-05-02T07:49:05.624Z,15.64
2019-05-02T07:50:10.397Z,15.85
2019-05-02T07:51:06.550Z,16.18
2019-05-02T07:52:05.578Z,16.22
2019-05-02T07:53:09.516Z,16.41
2019-05-02T07:54:06.568Z,16.75
2019-05-02T07:55:07.381Z,16.95
2019-05-02T07:56:05.487Z,17.35
2019-05-02T07:57:05.471Z,17.10
2019-05-02T07:58:07.005Z,16.77
2019-05-02T07:59:05.448Z,16.16
2019-05-02T08:00:05.516Z,16.88
2019-05-02T08:01:08.200Z,17.82
2019-05-02T08:02:06.410Z,18.47
2019-05-02T08:03:05.408Z,18.37
2019-05-02T08:04:11.104Z,17.63
2019-05-02T08:05:08.831Z,17.87
2019-05-02T08:06:05.371Z,17.28
2019-05-02T08:07:05.356Z,17.30
2019-05-02T08:08:05.351Z,17.66
2019-05-02T08:09:07.060Z,17.71
2019-05-02T08:10:05.324Z,18.27
2019-05-02T08:11:05.529Z,17.73
2019-05-02T08:12:05.296Z,18.17
2019-05-02T08:13:05.284Z,18.15
2019-05-02T08:14:05.273Z,18.52
2019-05-02T08:15:07.462Z,18.37
2019-05-02T08:16:06.326Z,18.24
2019-05-02T08:17:06.207Z,18.09
2019-05-02T08:18:06.232Z,18.13
2019-05-02T08:19:05.731Z,17.97
2019-05-02T08:20:08.406Z,18.09
2019-05-02T08:21:05.196Z,18.42
2019-05-02T08:22:12.981Z,18.28
2019-05-02T08:23:06.171Z,17.87
2019-05-02T08:24:05.163Z,17.50
2019-05-02T08:25:10.543Z,17.63
2019-05-02T08:26:06.140Z,18.15
2019-05-02T08:27:05.129Z,18.17
2019-05-02T08:28:09.913Z,18.28
2019-05-02T08:29:06.105Z,18.10
2019-05-02T08:30:05.887Z,17.79
2019-05-02T08:31:05.085Z,18.10
2019-05-02T08:32:05.072Z,17.22
2019-05-02T08:33:05.060Z,17.59
2019-05-02T08:34:14.148Z,17.91
2019-05-02T08:35:06.036Z,17.08
2019-05-02T08:36:05.027Z,16.78
2019-05-02T08:37:05.098Z,17.32
2019-05-02T08:38:05.003Z,17.18
2019-05-02T08:39:04.994Z,17.62
2019-05-02T08:40:10.000Z,17.78
2019-05-02T08:41:05.974Z,17.73
2019-05-02T08:42:04.958Z,17.51
2019-05-02T08:43:09.412Z,17.69
2019-05-02T08:44:05.935Z,18.17
2019-05-02T08:45:04.925Z,18.61
2019-05-02T08:46:09.344Z,18.77
2019-05-02T08:47:17.819Z,19.17
2019-05-02T08:48:06.552Z,19.84
2019-05-02T08:49:04.880Z,20.02
2019-05-02T08:50:07.620Z,19.68
2019-05-02T08:51:04.856Z,18.04
2019-05-02T08:52:04.916Z,17.87
2019-05-02T08:53:04.831Z,17.94
2019-05-02T08:54:04.823Z,18.47
2019-05-02T08:55:09.759Z,18.39
2019-05-02T08:56:05.798Z,18.50
2019-05-02T08:57:04.785Z,18.28
2019-05-02T08:58:06.514Z,18.07
2019-05-02T08:59:05.764Z,18.37
2019-05-02T09:00:04.754Z,18.65
2019-05-02T09:01:09.291Z,18.87
2019-05-02T09:02:05.729Z,18.50
2019-05-02T09:03:04.868Z,18.21
2019-05-02T09:04:04.781Z,18.09
2019-05-02T09:05:04.927Z,18.33
2019-05-02T09:06:06.173Z,18.34
2019-05-02T09:07:04.709Z,18.29
2019-05-02T09:08:04.673Z,18.42
2019-05-02T09:09:04.651Z,18.54
2019-05-02T09:10:05.824Z,18.59
2019-05-02T09:11:04.628Z,18.94
2019-05-02T09:12:12.313Z,19.61
2019-05-02T09:13:05.605Z,20.15
2019-05-02T09:14:04.597Z,20.30
2019-05-02T09:15:04.593Z,20.61
2019-05-02T09:16:06.022Z,20.16
2019-05-02T09:17:08.525Z,19.68
2019-05-02T09:18:05.550Z,19.17
2019-05-02T09:19:04.538Z,18.92
2019-05-02T09:20:10.652Z,18.84
2019-05-02T09:21:05.581Z,18.62
2019-05-02T09:22:07.605Z,19.17
2019-05-02T09:23:05.490Z,19.31
2019-05-02T09:24:08.480Z,19.13
2019-05-02T09:25:05.520Z,19.32
2019-05-02T09:26:04.463Z,19.87
2019-05-02T09:27:04.661Z,20.16
2019-05-02T09:28:04.459Z,20.18
2019-05-02T09:29:05.510Z,20.74
2019-05-02T09:30:04.413Z,21.26
2019-05-02T09:31:06.608Z,21.64
2019-05-02T09:32:04.397Z,20.93
2019-05-02T09:33:06.516Z,20.53
2019-05-02T09:34:04.379Z,20.23
2019-05-02T09:35:06.129Z,20.59
2019-05-02T09:36:04.370Z,20.54
2019-05-02T09:37:04.336Z,20.77
2019-05-02T09:38:04.371Z,20.56
2019-05-02T09:39:04.701Z,19.54
2019-05-02T09:40:07.008Z,19.15
2019-05-02T09:41:16.144Z,19.02
2019-05-02T09:42:06.771Z,19.10
2019-05-02T09:43:05.268Z,19.36
2019-05-02T09:44:04.256Z,19.80
2019-05-02T09:45:04.323Z,20.18
2019-05-02T09:46:07.350Z,20.06
2019-05-02T09:47:05.224Z,19.76
2019-05-02T09:48:07.731Z,19.57
2019-05-02T09:49:09.676Z,19.65
2019-05-02T09:50:05.562Z,19.32
2019-05-02T09:51:11.607Z,19.29
2019-05-02T09:52:05.194Z,19.32
2019-05-02T09:53:04.158Z,19.79
2019-05-02T09:54:06.342Z,20.12
2019-05-02T09:55:04.134Z,20.68
2019-05-02T09:56:04.334Z,21.16
2019-05-02T09:57:04.113Z,21.01
2019-05-02T09:58:04.105Z,20.90
2019-05-02T09:59:23.290Z,20.28
2019-05-02T10:00:05.076Z,20.06
2019-05-02T10:01:04.067Z,20.34
2019-05-02T10:02:04.124Z,20.25
2019-05-02T10:03:04.046Z,20.27
2019-05-02T10:04:04.041Z,19.53
2019-05-02T10:05:04.033Z,19.32
2019-05-02T10:06:08.086Z,19.42
2019-05-02T10:07:04.009Z,20.46
2019-05-02T10:08:06.892Z,21.34
2019-05-02T10:09:04.979Z,21.53
2019-05-02T10:10:06.520Z,21.91
2019-05-02T10:11:03.960Z,22.32
2019-05-02T10:12:03.943Z,22.09
2019-05-02T10:13:03.932Z,21.81
2019-05-02T10:14:03.986Z,21.46
2019-05-02T10:15:03.932Z,22.06
2019-05-02T10:16:03.922Z,22.13
2019-05-02T10:17:07.154Z,21.20
2019-05-02T10:18:11.076Z,21.04
2019-05-02T10:19:09.451Z,21.20
2019-05-02T10:20:04.857Z,21.69
2019-05-02T10:21:07.915Z,22.09
2019-05-02T10:22:04.833Z,22.97
2019-05-02T10:23:03.822Z,22.65
2019-05-02T10:24:03.913Z,21.72
2019-05-02T10:25:03.867Z,21.05
2019-05-02T10:26:03.866Z,20.90
2019-05-02T10:27:08.372Z,20.81
2019-05-02T10:28:03.766Z,20.99
2019-05-02T10:29:03.756Z,20.96
2019-05-02T10:30:11.799Z,21.21
2019-05-02T10:31:04.799Z,20.81
2019-05-02T10:32:07.595Z,20.91
2019-05-02T10:33:04.712Z,20.41
2019-05-02T10:34:03.701Z,20.33
2019-05-02T10:35:03.692Z,20.66
2019-05-02T10:36:03.680Z,21.34
2019-05-02T10:37:03.878Z,21.21
2019-05-02T10:38:03.658Z,21.39
2019-05-02T10:39:03.651Z,22.37
2019-05-02T10:40:07.914Z,22.52
2019-05-02T10:41:04.949Z,22.92
2019-05-02T10:42:03.618Z,22.57
2019-05-02T10:43:03.669Z,22.50
2019-05-02T10:44:03.591Z,22.39
2019-05-02T10:45:07.455Z,22.65
2019-05-02T10:46:04.572Z,23.71
2019-05-02T10:47:03.560Z,23.80
2019-05-02T10:48:03.548Z,22.72
2019-05-02T10:49:03.606Z,22.16
2019-05-02T10:50:03.525Z,21.38
2019-05-02T10:51:03.516Z,21.39
2019-05-02T10:52:03.506Z,21.05
2019-05-02T10:53:11.098Z,21.54
2019-05-02T10:54:04.551Z,22.20
2019-05-02T10:55:03.493Z,22.64
2019-05-02T10:56:03.460Z,23.31
2019-05-02T10:57:03.452Z,24.07
2019-05-02T10:58:03.448Z,24.05
2019-05-02T10:59:03.425Z,24.10
2019-05-02T11:00:03.481Z,24.82
2019-05-02T11:01:03.405Z,25.49
2019-05-02T11:02:03.425Z,25.27
2019-05-02T11:03:03.383Z,25.01
2019-05-02T11:04:03.374Z,25.38
2019-05-02T11:05:03.361Z,25.32
2019-05-02T11:06:07.508Z,24.50
2019-05-02T11:07:03.363Z,24.63
2019-05-02T11:08:06.169Z,24.94
2019-05-02T11:09:06.188Z,24.82
2019-05-02T11:10:06.791Z,24.57
2019-05-02T11:11:06.140Z,23.95
2019-05-02T11:12:03.495Z,23.40
2019-05-02T11:13:03.275Z,22.78
2019-05-02T11:14:05.750Z,22.32
2019-05-02T11:15:03.253Z,22.56
2019-05-02T11:16:03.243Z,22.96
2019-05-02T11:17:03.240Z,22.92
2019-05-02T11:18:03.286Z,22.90
2019-05-02T11:19:03.211Z,22.68
2019-05-02T11:20:03.199Z,22.57
2019-05-02T11:21:07.259Z,23.02
2019-05-02T11:22:04.179Z,23.43
2019-05-02T11:23:03.167Z,23.70
2019-05-02T11:24:03.253Z,24.14
2019-05-02T11:25:03.146Z,24.49
2019-05-02T11:26:03.135Z,24.04
2019-05-02T11:27:03.124Z,24.88
2019-05-02T11:28:07.079Z,24.76
2019-05-02T11:29:03.248Z,23.80
2019-05-02T11:30:03.178Z,23.19
2019-05-02T11:31:06.860Z,22.59
2019-05-02T11:32:04.069Z,22.67
2019-05-02T11:33:03.260Z,23.24
2019-05-02T11:34:03.054Z,23.42
2019-05-02T11:35:03.142Z,24.04
2019-05-02T11:36:03.090Z,25.27
2019-05-02T11:37:03.016Z,26.67
2019-05-02T11:38:03.109Z,26.37
2019-05-02T11:39:13.244Z,25.68
2019-05-02T11:40:06.195Z,25.74
2019-05-02T11:41:02.973Z,24.92
2019-05-02T11:42:03.030Z,24.63
2019-05-02T11:43:06.642Z,24.95
2019-05-02T11:44:03.127Z,24.54
2019-05-02T11:45:02.934Z,24.01
2019-05-02T11:46:07.218Z,23.98
2019-05-02T11:47:02.910Z,24.22
2019-05-02T11:48:09.359Z,23.71
2019-05-02T11:49:03.885Z,22.62
2019-05-02T11:50:02.876Z,23.43
2019-05-02T11:51:07.257Z,23.83
2019-05-02T11:52:04.678Z,24.52
2019-05-02T11:53:03.006Z,25.64
2019-05-02T11:54:05.216Z,25.87
2019-05-02T11:55:03.820Z,25.84
2019-05-02T11:56:07.243Z,25.50
2019-05-02T11:57:02.802Z,24.76
2019-05-02T11:58:08.334Z,23.62
2019-05-02T11:59:03.845Z,23.22
2019-05-02T12:00:04.930Z,23.68
2019-05-02T12:01:05.404Z,24.53
2019-05-02T12:02:02.838Z,24.82
2019-05-02T12:03:02.736Z,23.53
2019-05-02T12:04:03.090Z,22.65
2019-05-02T12:05:02.781Z,21.82
2019-05-02T12:06:06.738Z,22.06
2019-05-02T12:07:04.862Z,22.62
2019-05-02T12:08:07.801Z,23.45
2019-05-02T12:09:03.669Z,23.64
2019-05-02T12:10:04.666Z,24.14
2019-05-02T12:11:03.884Z,23.80
2019-05-02T12:12:02.714Z,24.53
2019-05-02T12:13:06.486Z,25.84
2019-05-02T12:14:03.658Z,27.13
2019-05-02T12:15:02.652Z,26.39
2019-05-02T12:16:02.789Z,25.19
2019-05-02T12:17:02.733Z,24.67
2019-05-02T12:18:02.597Z,24.49
2019-05-02T12:19:11.372Z,24.13
2019-05-02T12:20:03.554Z,23.49
2019-05-02T12:21:02.753Z,22.62
2019-05-02T12:22:02.781Z,22.60
2019-05-02T12:23:02.594Z,22.46
2019-05-02T12:24:02.539Z,22.49
2019-05-02T12:25:02.986Z,22.49
2019-05-02T12:26:02.846Z,21.92
2019-05-02T12:27:02.633Z,21.85
2019-05-02T12:28:02.486Z,21.75
2019-05-02T12:29:02.784Z,21.61
2019-05-02T12:30:03.290Z,21.26
2019-05-02T12:31:02.884Z,21.88
2019-05-02T12:32:02.703Z,23.52
2019-05-02T12:33:02.596Z,25.22
2019-05-02T12:34:02.740Z,25.53
2019-05-02T12:35:02.566Z,25.87
2019-05-02T12:36:02.686Z,24.31
2019-05-02T12:37:02.364Z,23.17
2019-05-02T12:38:02.760Z,22.94
2019-05-02T12:39:02.624Z,23.38
2019-05-02T12:40:02.786Z,23.57
2019-05-02T12:41:02.744Z,23.31
2019-05-02T12:42:03.359Z,23.12
2019-05-02T12:43:02.538Z,23.09
2019-05-02T12:44:02.503Z,23.07
2019-05-02T12:45:02.829Z,22.23
2019-05-02T12:46:02.428Z,21.94
2019-05-02T12:47:02.711Z,21.75
2019-05-02T12:48:02.506Z,21.81
2019-05-02T12:49:02.899Z,22.12
2019-05-02T12:50:03.109Z,22.44
2019-05-02T12:51:02.257Z,22.25
2019-05-02T12:52:02.218Z,22.12
2019-05-02T12:53:02.937Z,22.01
2019-05-02T12:54:02.492Z,22.50
2019-05-02T12:55:02.389Z,22.84
2019-05-02T12:56:02.319Z,22.72
2019-05-02T12:57:02.181Z,22.37
2019-05-02T12:58:03.138Z,21.78
2019-05-02T12:59:02.669Z,21.21
2019-05-02T13:00:02.227Z,21.21
2019-05-02T13:01:02.830Z,21.02
2019-05-02T13:02:02.595Z,20.86
2019-05-02T13:03:02.113Z,20.84